createdAt,value
2023-01-29T00:03:47.059Z,4.63
2023-01-29T00:08:49.979Z,5.03
2023-01-29T00:13:54.545Z,4.57
2023-01-29T00:18:57.026Z,5.13
2023-01-29T00:24:00.264Z,8.05
2023-01-29T00:29:04.035Z,7.80
2023-01-29T00:34:06.455Z,4.82
2023-01-29T00:39:11.156Z,4.00
2023-01-29T00:44:33.233Z,4.38
2023-01-29T00:49:36.000Z,6.78
2023-01-29T00:54:38.903Z,8.23
2023-01-29T00:59:41.453Z,5.30
2023-01-29T01:04:44.521Z,8.25
2023-01-29T01:10:07.405Z,9.13
2023-01-29T01:15:10.997Z,4.85
2023-01-29T01:20:14.227Z,5.00
2023-01-29T01:25:17.895Z,4.65
2023-01-29T01:30:21.442Z,4.30
2023-01-29T01:35:23.833Z,4.25
2023-01-29T01:40:26.613Z,9.27
2023-01-29T01:45:37.116Z,8.98
2023-01-29T01:50:50.162Z,9.57
2023-01-29T01:55:59.805Z,12.88
2023-01-29T02:01:06.279Z,9.07
2023-01-29T02:06:29.165Z,9.32
2023-01-29T02:11:32.692Z,5.07
2023-01-29T02:16:36.732Z,4.13
2023-01-29T02:21:45.868Z,4.38
2023-01-29T02:26:58.713Z,4.30
2023-01-29T02:32:11.154Z,4.97
2023-01-29T02:37:15.351Z,4.63
2023-01-29T02:42:37.286Z,4.28
2023-01-29T02:47:48.450Z,4.57
2023-01-29T02:53:15.756Z,4.80
2023-01-29T02:58:31.292Z,6.68
2023-01-29T03:03:40.935Z,6.72
2023-01-29T03:08:50.314Z,4.95
2023-01-29T03:14:13.605Z,4.13
2023-01-29T03:19:21.180Z,4.40
2023-01-29T03:24:48.121Z,5.13
2023-01-29T03:30:12.845Z,5.60
2023-01-29T03:35:37.730Z,4.45
2023-01-29T03:40:49.766Z,6.40
2023-01-29T03:46:05.330Z,5.57
2023-01-29T03:51:23.590Z,3.90
2023-01-29T03:56:55.477Z,4.75
2023-01-29T04:02:03.394Z,7.32
2023-01-29T04:07:24.628Z,6.97
2023-01-29T04:12:46.234Z,8.43
2023-01-29T04:17:53.094Z,10.85
2023-01-29T04:28:20.025Z,10.45
2023-01-29T04:33:56.994Z,10.32
2023-01-29T04:39:18.679Z,13.70
2023-01-29T04:44:38.808Z,8.18
2023-01-29T04:50:16.155Z,5.70
2023-01-29T04:55:28.953Z,3.67
2023-01-29T05:00:37.709Z,4.88
2023-01-29T05:05:43.278Z,5.20
2023-01-29T05:10:48.494Z,6.43
2023-01-29T05:15:53.909Z,4.95
2023-01-29T05:21:16.633Z,6.45
2023-01-29T05:26:41.581Z,9.75
2023-01-29T05:31:45.795Z,7.75
2023-01-29T05:36:48.587Z,9.07
2023-01-29T05:41:52.590Z,9.55
2023-01-29T05:46:55.513Z,11.77
2023-01-29T05:51:58.411Z,11.27
2023-01-29T05:57:01.322Z,12.88
2023-01-29T06:02:03.756Z,9.25
2023-01-29T06:07:06.096Z,10.38
2023-01-29T06:12:09.587Z,13.30
2023-01-29T06:17:11.923Z,11.05
2023-01-29T06:22:14.687Z,8.77
2023-01-29T06:27:17.818Z,7.50
2023-01-29T06:32:20.768Z,8.73
2023-01-29T06:37:24.478Z,8.35
2023-01-29T06:42:28.247Z,5.82
2023-01-29T06:47:30.716Z,4.10
2023-01-29T06:52:33.615Z,6.15
2023-01-29T06:57:35.921Z,5.95
2023-01-29T07:02:38.858Z,5.80
2023-01-29T07:07:41.671Z,4.75
2023-01-29T07:12:44.448Z,4.60
2023-01-29T07:18:01.634Z,4.80
2023-01-29T07:23:05.223Z,4.53
2023-01-29T07:28:07.983Z,4.65
2023-01-29T07:33:12.081Z,4.55
2023-01-29T07:38:14.428Z,4.90
2023-01-29T07:43:17.497Z,4.70
2023-01-29T07:48:20.580Z,5.10
2023-01-29T07:53:23.608Z,5.82
2023-01-29T07:58:26.494Z,5.40
2023-01-29T08:03:28.863Z,5.55
2023-01-29T08:08:31.116Z,5.47
2023-01-29T08:13:34.474Z,4.72
2023-01-29T08:18:37.970Z,5.88
2023-01-29T08:23:40.625Z,5.90
2023-01-29T08:28:43.448Z,7.85
2023-01-29T08:33:47.060Z,11.27
2023-01-29T08:38:49.619Z,6.45
2023-01-29T08:43:52.159Z,6.50
2023-01-29T08:48:55.572Z,5.78
2023-01-29T08:53:57.848Z,7.35
2023-01-29T08:59:00.599Z,6.95
2023-01-29T09:04:03.023Z,5.55
2023-01-29T09:09:06.173Z,5.97
2023-01-29T09:14:09.958Z,7.43
2023-01-29T09:19:13.596Z,6.45
2023-01-29T09:24:16.452Z,7.10
2023-01-29T09:29:18.902Z,8.13
2023-01-29T09:34:21.178Z,11.88
2023-01-29T09:39:23.601Z,12.07
2023-01-29T09:44:28.841Z,8.63
2023-01-29T09:49:43.972Z,7.93
2023-01-29T09:54:55.950Z,9.20
2023-01-29T09:59:59.437Z,8.32
2023-01-29T10:05:11.577Z,7.70
2023-01-29T10:10:38.898Z,7.80
2023-01-29T10:16:05.023Z,8.40
2023-01-29T10:21:29.046Z,7.35
2023-01-29T10:26:33.527Z,8.25
2023-01-29T10:31:40.865Z,8.30
2023-01-29T10:36:48.520Z,8.05
2023-01-29T10:42:20.279Z,8.57
2023-01-29T10:47:52.954Z,7.55
2023-01-29T10:53:29.657Z,8.20
2023-01-29T10:58:32.321Z,7.70
2023-01-29T11:03:34.827Z,6.63
2023-01-29T11:09:07.960Z,8.77
2023-01-29T11:14:21.279Z,7.80
2023-01-29T11:19:45.351Z,8.70
2023-01-29T11:25:16.583Z,8.13
2023-01-29T11:30:27.158Z,12.90
2023-01-29T11:35:30.830Z,10.35
2023-01-29T11:40:37.400Z,9.73
2023-01-29T11:45:40.691Z,7.78
2023-01-29T11:50:44.024Z,8.52
2023-01-29T11:55:50.850Z,7.53
2023-01-29T12:00:55.733Z,7.25
2023-01-29T12:06:03.383Z,7.70
2023-01-29T12:11:16.467Z,8.30
2023-01-29T12:16:27.979Z,10.02
2023-01-29T12:21:42.609Z,7.80
2023-01-29T12:26:51.097Z,7.55
2023-01-29T12:32:13.093Z,7.60
2023-01-29T12:37:24.259Z,6.68
2023-01-29T12:42:27.699Z,7.80
2023-01-29T12:47:39.025Z,8.77
2023-01-29T12:52:58.517Z,7.72
2023-01-29T12:58:04.823Z,10.18
2023-01-29T13:03:33.334Z,9.02
2023-01-29T13:08:41.606Z,7.05
2023-01-29T13:13:54.997Z,8.30
2023-01-29T13:19:01.257Z,7.47
2023-01-29T13:24:10.429Z,8.93
2023-01-29T13:29:31.181Z,7.65
2023-01-29T13:34:37.373Z,7.80
2023-01-29T13:39:50.905Z,8.45
2023-01-29T13:44:57.448Z,9.15
2023-01-29T13:50:11.374Z,9.23
2023-01-29T13:55:22.887Z,9.57
2023-01-29T14:00:34.444Z,11.13
2023-01-29T14:05:55.076Z,8.93
2023-01-29T14:11:16.081Z,8.07
2023-01-29T14:16:19.604Z,7.72
2023-01-29T14:21:32.531Z,8.68
2023-01-29T14:26:46.064Z,8.63
2023-01-29T14:32:13.650Z,9.18
2023-01-29T14:37:16.122Z,9.25
2023-01-29T14:42:24.723Z,10.32
2023-01-29T14:47:33.120Z,7.97
2023-01-29T14:52:44.503Z,9.60
2023-01-29T14:57:49.014Z,9.10
2023-01-29T15:03:03.019Z,9.25
2023-01-29T15:08:16.973Z,11.90
2023-01-29T15:13:56.280Z,10.20
2023-01-29T15:19:13.788Z,8.35
2023-01-29T15:24:16.379Z,9.43
2023-01-29T15:29:26.025Z,12.90
2023-01-29T15:34:28.699Z,12.43
2023-01-29T15:39:32.015Z,14.38
2023-01-29T15:44:35.185Z,12.68
2023-01-29T15:49:39.873Z,11.93
2023-01-29T15:54:42.369Z,12.13
2023-01-29T15:59:46.035Z,12.68
2023-01-29T16:04:48.521Z,13.57
2023-01-29T16:09:53.222Z,11.90
2023-01-29T16:14:56.312Z,14.35
2023-01-29T16:20:01.787Z,12.32
2023-01-29T16:25:11.678Z,12.88
2023-01-29T16:30:17.883Z,11.20
2023-01-29T16:35:20.899Z,12.65
2023-01-29T16:40:33.986Z,11.80
2023-01-29T16:45:36.649Z,12.65
2023-01-29T16:50:53.847Z,13.20
2023-01-29T16:56:04.546Z,14.48
2023-01-29T17:01:11.651Z,14.45
2023-01-29T17:06:21.655Z,14.60
2023-01-29T17:11:30.453Z,20.05
2023-01-29T17:16:49.215Z,22.27
2023-01-29T17:21:51.798Z,15.57
2023-01-29T17:26:54.749Z,13.60
2023-01-29T17:32:00.430Z,12.25
2023-01-29T17:37:03.144Z,11.60
2023-01-29T17:42:05.716Z,12.02
2023-01-29T17:47:14.157Z,11.25
2023-01-29T17:52:16.942Z,12.05
2023-01-29T17:57:19.504Z,12.73
2023-01-29T18:02:29.018Z,13.10
2023-01-29T18:07:32.661Z,12.75
2023-01-29T18:12:35.073Z,11.73
2023-01-29T18:17:38.613Z,12.30
2023-01-29T18:22:41.046Z,12.55
2023-01-29T18:27:43.610Z,12.02
2023-01-29T18:32:47.750Z,11.75
2023-01-29T18:37:51.575Z,10.88
2023-01-29T18:42:54.130Z,12.18
2023-01-29T18:47:56.975Z,13.50
2023-01-29T18:52:59.991Z,11.75
2023-01-29T18:58:26.957Z,10.50
2023-01-29T19:03:25.667Z,10.40
2023-01-29T19:08:28.735Z,10.65
2023-01-29T19:13:33.025Z,14.20
2023-01-29T19:18:35.673Z,13.13
2023-01-29T19:23:38.373Z,11.52
2023-01-29T19:28:42.124Z,12.93
2023-01-29T19:33:44.520Z,12.50
2023-01-29T19:38:47.120Z,10.40
2023-01-29T19:43:50.089Z,10.40
2023-01-29T19:48:56.683Z,10.55
2023-01-29T19:53:59.163Z,10.50
2023-01-29T19:59:01.852Z,12.52
2023-01-29T20:04:04.918Z,10.65
2023-01-29T20:09:07.702Z,10.10
2023-01-29T20:14:11.421Z,9.98
2023-01-29T20:19:15.883Z,12.65
2023-01-29T20:24:18.250Z,9.98
2023-01-29T20:29:20.716Z,11.68
2023-01-29T20:34:24.259Z,12.52
2023-01-29T20:39:27.958Z,15.35
2023-01-29T20:44:31.034Z,17.45
2023-01-29T20:49:34.169Z,16.13
2023-01-29T20:54:37.440Z,17.80
2023-01-29T20:59:39.831Z,16.00
2023-01-29T21:04:44.316Z,16.60
2023-01-29T21:09:47.471Z,18.50
2023-01-29T21:14:51.875Z,16.05
2023-01-29T21:19:54.691Z,14.07
2023-01-29T21:24:57.706Z,12.88
2023-01-29T21:30:01.793Z,12.02
2023-01-29T21:35:07.392Z,13.43
2023-01-29T21:40:10.792Z,13.32
2023-01-29T21:45:13.853Z,12.75
2023-01-29T21:50:17.305Z,11.98
2023-01-29T21:55:20.513Z,18.42
2023-01-29T22:00:22.867Z,17.05
2023-01-29T22:05:26.708Z,13.35
2023-01-29T22:10:29.176Z,11.68
2023-01-29T22:15:32.719Z,11.90
2023-01-29T22:20:37.216Z,10.95
2023-01-29T22:25:40.025Z,11.05
2023-01-29T22:30:44.168Z,11.40
2023-01-29T22:35:46.729Z,12.00
2023-01-29T22:40:50.741Z,12.20
2023-01-29T22:45:53.314Z,12.68
2023-01-29T22:51:09.724Z,12.55
2023-01-29T22:56:12.418Z,12.55
2023-01-29T23:01:17.707Z,13.95
2023-01-29T23:06:21.891Z,12.60
2023-01-29T23:11:25.352Z,11.55
2023-01-29T23:16:29.217Z,12.68
2023-01-29T23:21:31.736Z,13.10
2023-01-29T23:26:52.673Z,13.65
2023-01-29T23:31:55.937Z,12.50
2023-01-29T23:36:59.165Z,13.35
2023-01-29T23:42:02.544Z,13.43
2023-01-29T23:47:05.596Z,13.20
2023-01-29T23:52:09.102Z,12.52
2023-01-29T23:57:11.482Z,12.43
